Kirby, Wyoming
Current Conditions -  °F | °C
As of 2:53 AM on Saturday 22 Nov 2014 (Local Time) from KWRL Reporting Station
Scattered Clouds Scattered Clouds  
Wind Chill: 18°   Ceiling: Unl
Heat Index: 18°   Visibility: 10mi
Dew Point: 14°   Wind: 3mph
Humidity: 84%   Direction: 100°E
Pressure: 29.65"   Gusts: NA
Location:  43.8°N, 108.18°W
Report Text: KWRL 220953Z AUTO 10003KT 10SM SCT110 M08/M10 A2965 RMK AO2 SLP078 T10781100
Loading
Personal Weather Stations






























Interactive Weather Map New forecast layout! Learn more

10-Day Weather Forecast

Advertisements
Track Severe Weather on mobile